Time;durP1;ratioP1;P1;durP2;ratioP2;P2;SDS_P1;SDS_P2;PMS_P1;PMS_P2;Temp;Humidity;BMP_temperature;BMP_pressure;BME280_temperature;BME280_humidity;BME280_pressure;Samples;Min_cycle;Max_cycle;Signal;HPM_P1;HPM_P2
2022/05/14 00:01:18;;;;;;;;;12.00;9.25;;;;;14.83;51.72;101373.69;4956878;28;45337;-75
2022/05/14 00:03:44;;;;;;;;;6.00;6.00;;;;;14.82;51.67;101369.31;4958097;28;45160;-74
2022/05/14 00:06:14;;;;;;;;;7.50;6.00;;;;;14.80;51.72;101369.41;4957980;28;45283;-73
2022/05/14 00:08:40;;;;;;;;;7.50;7.50;;;;;14.77;51.80;101374.84;4957948;28;45516;-74
2022/05/14 00:14:11;;;;;;;;;11.75;8.00;;;;;14.69;52.12;101371.66;4901430;29;45459;-76
2022/05/14 00:16:37;;;;;;;;;14.50;9.75;;;;;14.56;52.31;101358.97;4904205;29;46159;-74
2022/05/14 00:19:04;;;;;;;;;10.50;9.00;;;;;14.58;52.61;101364.19;4929069;28;45277;-75
2022/05/14 00:21:30;;;;;;;;;4.75;4.75;;;;;14.54;52.87;101368.78;4961266;28;45344;-72
2022/05/14 00:23:58;;;;;;;;;6.75;5.25;;;;;14.49;53.04;101364.59;4960712;28;45602;-74
2022/05/14 00:26:24;;;;;;;;;7.75;5.00;;;;;14.45;52.79;101370.03;4957431;28;47363;-74
2022/05/14 00:28:49;;;;;;;;;16.00;14.25;;;;;14.36;52.91;101356.34;4957405;28;45399;-74
2022/05/14 00:31:16;;;;;;;;;5.00;5.00;;;;;14.38;53.13;101363.28;4941370;28;45762;-73
2022/05/14 00:33:42;;;;;;;;;7.50;6.25;;;;;14.40;52.98;101372.00;4958933;28;45474;-74
2022/05/14 00:36:07;;;;;;;;;8.00;5.00;;;;;14.37;52.85;101358.91;4958905;28;45357;-74
2022/05/14 00:38:33;;;;;;;;;7.00;7.00;;;;;14.39;53.23;101364.16;4959639;28;45362;-73
2022/05/14 00:41:02;;;;;;;;;5.25;5.25;;;;;14.38;53.17;101368.56;4960979;28;45458;-73
2022/05/14 00:43:28;;;;;;;;;9.75;8.25;;;;;14.32;53.77;101363.53;4960339;28;45492;-74
2022/05/14 00:46:17;;;;;;;;;10.50;8.75;;;;;14.35;53.51;101367.88;4961212;28;45604;-74
2022/05/14 00:48:47;;;;;;;;;7.25;5.25;;;;;14.33;53.81;101359.97;4961375;28;45227;-74
2022/05/14 00:51:17;;;;;;;;;6.00;6.00;;;;;14.30;53.41;101362.75;4944164;28;45389;-75
2022/05/14 00:53:47;;;;;;;;;7.25;5.50;;;;;14.30;53.74;101357.47;4961556;28;45290;-73
2022/05/14 00:56:16;;;;;;;;;8.75;8.75;;;;;14.24;54.01;101353.28;4944284;28;47241;-74
2022/05/14 00:58:56;;;;;;;;;11.25;11.25;;;;;14.25;54.33;101355.00;4962017;28;45404;-73
2022/05/14 01:01:22;;;;;;;;;7.00;5.50;;;;;14.06;54.05;101330.25;4959718;28;45448;-74
2022/05/14 01:03:47;;;;;;;;;8.75;8.75;;;;;14.09;54.18;101335.44;4959410;28;45344;-74
2022/05/14 01:06:17;;;;;;;;;5.25;5.25;;;;;14.12;53.84;101338.81;4941985;28;46462;-74
2022/05/14 01:08:44;;;;;;;;;4.75;4.75;;;;;14.16;53.93;101342.16;4957170;28;45398;-75
2022/05/14 01:11:11;;;;;;;;;8.25;6.75;;;;;14.11;53.96;101339.75;4955095;28;45401;-76
2022/05/14 01:13:37;;;;;;;;;4.75;4.75;;;;;14.02;54.15;101319.81;4939456;28;45561;-74
2022/05/14 01:16:04;;;;;;;;;12.25;11.00;;;;;14.16;54.56;101347.47;4961239;28;45402;-75
2022/05/14 01:18:33;;;;;;;;;9.00;7.50;;;;;14.13;54.24;101348.47;4958823;28;45374;-74
2022/05/14 01:21:09;;;;;;;;;12.25;10.25;;;;;14.09;54.11;101349.53;4960343;28;45308;-74
2022/05/14 01:26:31;;;;;;;;;6.25;6.25;;;;;14.09;53.95;101346.88;4956274;28;45753;-73
2022/05/14 01:29:10;;;;;;;;;7.00;5.00;;;;;14.08;54.03;101347.81;4956958;28;45390;-72
2022/05/14 01:31:36;;;;;;;;;5.25;5.25;;;;;14.05;54.13;101336.47;4956600;28;45396;-73
2022/05/14 01:34:07;;;;;;;;;6.75;4.25;;;;;14.03;53.92;101336.56;4956833;28;45284;-74
2022/05/14 01:36:34;;;;;;;;;5.00;4.00;;;;;14.06;54.12;101344.38;4938925;28;47520;-76
2022/05/14 01:38:59;;;;;;;;;5.25;4.00;;;;;14.02;54.16;101340.97;4956891;28;45309;-73
2022/05/14 01:41:25;;;;;;;;;4.00;4.00;;;;;14.04;54.17;101338.28;4959809;28;45416;-74
2022/05/14 01:43:51;;;;;;;;;5.75;5.75;;;;;14.00;54.09;101334.06;4958070;28;45343;-73
2022/05/14 01:46:17;;;;;;;;;5.00;5.00;;;;;13.93;54.33;101314.09;4957704;28;45304;-74
2022/05/14 01:48:43;;;;;;;;;6.75;6.75;;;;;14.00;54.37;101337.53;4939911;28;46152;-74
2022/05/14 01:51:08;;;;;;;;;9.50;6.50;;;;;13.99;54.17;101340.25;4958406;28;45310;-73
2022/05/14 01:53:34;;;;;;;;;5.00;5.00;;;;;13.98;54.34;101330.59;4957798;28;45346;-74
2022/05/14 01:55:59;;;;;;;;;7.00;3.00;;;;;13.97;54.37;101331.53;4958137;28;46002;-73
2022/05/14 01:58:37;;;;;;;;;4.75;4.75;;;;;13.94;54.47;101324.56;4960183;28;45256;-73
2022/05/14 02:01:19;;;;;;;;;5.25;4.25;;;;;13.95;54.43;101331.59;4957997;28;45292;-73
2022/05/14 02:03:50;;;;;;;;;7.00;4.00;;;;;13.92;54.33;101323.78;4960464;28;45236;-72
2022/05/14 02:06:16;;;;;;;;;3.00;3.00;;;;;13.93;54.49;101327.31;4956286;28;45401;-74
2022/05/14 02:08:42;;;;;;;;;4.00;4.00;;;;;13.91;54.75;101326.50;4958814;28;45674;-74
2022/05/14 02:11:09;;;;;;;;;12.25;9.25;;;;;13.90;54.66;101330.06;4940164;28;45419;-74
2022/05/14 02:13:36;;;;;;;;;6.75;5.50;;;;;13.82;55.08;101318.03;4960966;28;45260;-73
2022/05/14 02:16:03;;;;;;;;;6.50;4.75;;;;;13.86;55.12;101326.69;4964026;28;45303;-73
2022/05/14 02:18:28;;;;;;;;;6.00;6.00;;;;;13.83;55.16;101319.75;4958723;28;45960;-73
2022/05/14 02:20:54;;;;;;;;;5.00;5.00;;;;;13.84;55.11;101320.59;4959254;28;45287;-73
2022/05/14 02:23:20;;;;;;;;;4.50;4.50;;;;;13.83;55.40;101324.16;4964100;28;45577;-74
2022/05/14 02:25:46;;;;;;;;;6.50;5.25;;;;;13.66;55.41;101293.13;4960204;28;45422;-77
2022/05/14 02:28:11;;;;;;;;;6.00;6.00;;;;;13.79;54.99;101315.53;4959099;28;45121;-74
2022/05/14 02:30:37;;;;;;;;;6.00;6.00;;;;;13.80;55.19;101317.25;4959189;28;45239;-74
2022/05/14 02:33:03;;;;;;;;;6.00;6.00;;;;;13.76;55.39;101312.13;4960072;28;45493;-75
2022/05/14 02:35:28;;;;;;;;;8.50;6.00;;;;;13.76;55.49;101317.41;4960457;28;46198;-74
2022/05/14 02:37:54;;;;;;;;;6.50;6.00;;;;;13.74;55.39;101314.81;4958866;28;45315;-74
2022/05/14 02:40:19;;;;;;;;;5.00;4.00;;;;;13.75;55.29;101316.53;4959333;28;45367;-73
2022/05/14 02:42:45;;;;;;;;;5.00;5.00;;;;;13.71;55.48;101312.31;4959549;28;45306;-73
2022/05/14 02:45:11;;;;;;;;;5.00;5.00;;;;;13.69;55.44;101316.81;4963388;28;46216;-72
2022/05/14 02:47:37;;;;;;;;;4.50;4.50;;;;;13.71;55.29;101326.41;4959622;28;45361;-72
2022/05/14 02:50:04;;;;;;;;;5.50;5.50;;;;;13.41;55.49;101280.91;4957802;28;45296;-73
2022/05/14 02:52:30;;;;;;;;;8.75;7.25;;;;;13.68;55.13;101320.38;4965414;28;45437;-74
2022/05/14 02:54:55;;;;;;;;;7.00;7.00;;;;;13.67;54.86;101326.59;4958677;28;45323;-74
2022/05/14 02:57:20;;;;;;;;;5.25;5.25;;;;;13.66;55.30;101335.44;4942369;28;45422;-73
2022/05/14 02:59:46;;;;;;;;;13.00;9.75;;;;;13.65;55.19;101317.84;4959930;28;45794;-74
2022/05/14 03:02:12;;;;;;;;;6.50;6.50;;;;;13.65;55.23;101326.66;4960372;28;45864;-74
2022/05/14 03:04:40;;;;;;;;;4.00;4.00;;;;;13.63;55.24;101327.63;4961058;28;45953;-74
2022/05/14 03:07:08;;;;;;;;;8.00;8.00;;;;;13.65;55.36;101331.06;4943863;28;45419;-74
2022/05/14 03:09:36;;;;;;;;;4.50;4.00;;;;;13.64;55.31;101327.59;4961507;28;45493;-75
2022/05/14 03:12:02;;;;;;;;;6.00;4.50;;;;;13.66;55.41;101332.78;4960475;28;45477;-74
2022/05/14 03:14:27;;;;;;;;;4.25;3.00;;;;;13.67;55.15;101334.50;4960608;28;45266;-73
2022/05/14 03:16:54;;;;;;;;;6.00;4.00;;;;;13.66;55.25;101332.78;4960178;28;45263;-73
2022/05/14 03:19:20;;;;;;;;;5.00;5.00;;;;;13.66;55.15;101323.09;4960522;28;45272;-73
2022/05/14 03:21:45;;;;;;;;;4.25;4.00;;;;;13.76;54.99;101328.00;4958958;28;45320;-74
2022/05/14 03:24:11;;;;;;;;;5.75;5.75;;;;;13.78;54.99;101319.06;4958889;28;45405;-74
2022/05/14 03:26:39;;;;;;;;;4.00;4.00;;;;;13.82;54.76;101315.41;4962475;28;45424;-74
2022/05/14 03:29:05;;;;;;;;;4.00;4.00;;;;;13.75;55.10;101303.31;4959524;28;45460;-73
2022/05/14 03:31:34;;;;;;;;;4.75;3.50;;;;;13.84;54.96;101321.47;4959208;28;45277;-75
2022/05/14 03:34:00;;;;;;;;;4.00;4.00;;;;;13.85;54.58;101325.84;4959786;28;46266;-75
2022/05/14 03:36:25;;;;;;;;;2.25;2.25;;;;;13.83;54.68;101324.16;4960985;28;45311;-75
2022/05/14 03:38:51;;;;;;;;;8.00;4.00;;;;;13.81;54.90;101326.91;4960760;28;45435;-74
2022/05/14 03:41:17;;;;;;;;;5.50;5.00;;;;;13.80;54.82;101324.31;4957851;28;45548;-74
2022/05/14 03:43:44;;;;;;;;;4.00;2.50;;;;;13.79;54.74;101325.22;4940459;28;45984;-74
2022/05/14 03:46:10;;;;;;;;;6.00;6.00;;;;;13.71;54.82;101322.88;4958354;28;45326;-74
2022/05/14 03:48:36;;;;;;;;;3.00;3.00;;;;;13.66;54.87;101317.81;4960124;28;45271;-75
2022/05/14 03:51:02;;;;;;;;;3.75;3.00;;;;;13.66;54.83;101322.22;4958340;28;45267;-74
2022/05/14 03:53:28;;;;;;;;;5.75;4.00;;;;;13.64;55.02;101314.38;4957656;28;45353;-74
2022/05/14 03:55:53;;;;;;;;;4.25;4.25;;;;;13.61;55.06;101330.34;4957174;28;45175;-73
2022/05/14 03:58:18;;;;;;;;;6.25;4.00;;;;;13.63;55.09;101327.63;4957568;28;45380;-72
2022/05/14 04:00:44;;;;;;;;;5.00;4.00;;;;;13.61;55.00;101334.75;4957694;28;45550;-73
2022/05/14 04:03:09;;;;;;;;;3.25;3.00;;;;;13.59;54.86;101329.56;4957831;28;45910;-72
2022/05/14 04:05:35;;;;;;;;;5.00;5.00;;;;;13.56;54.88;101327.88;4957059;28;45832;-74
2022/05/14 04:08:00;;;;;;;;;6.00;5.00;;;;;13.55;55.08;101323.53;4960813;28;45342;-74
2022/05/14 04:10:25;;;;;;;;;4.00;4.00;;;;;13.51;55.30;101316.63;4960758;28;45552;-73
2022/05/14 04:12:51;;;;;;;;;4.75;3.00;;;;;13.52;55.25;101320.16;4940289;28;46449;-72
2022/05/14 04:15:16;;;;;;;;;4.00;4.00;;;;;13.42;55.17;101309.09;4957273;28;45384;-73
2022/05/14 04:17:42;;;;;;;;;5.00;3.75;;;;;13.49;55.22;101323.78;4957691;28;45319;-73
2022/05/14 04:20:08;;;;;;;;;6.00;4.75;;;;;13.50;55.27;101319.38;4957501;28;45630;-74
2022/05/14 04:22:34;;;;;;;;;7.00;4.00;;;;;13.51;55.29;101323.72;4957605;28;47337;-72
2022/05/14 04:24:59;;;;;;;;;5.25;4.75;;;;;13.51;55.05;101332.50;4957406;28;45472;-72
2022/05/14 04:27:25;;;;;;;;;3.50;3.00;;;;;13.52;55.48;101331.56;4957920;28;45306;-73
2022/05/14 04:29:52;;;;;;;;;3.75;2.75;;;;;13.53;55.19;101325.38;4958155;28;45561;-73
2022/05/14 04:32:17;;;;;;;;;3.00;3.00;;;;;13.56;55.30;101324.41;4958844;28;46461;-74
2022/05/14 04:34:42;;;;;;;;;4.00;4.00;;;;;13.57;55.60;101321.69;4957289;28;45291;-73
2022/05/14 04:37:08;;;;;;;;;5.00;5.00;;;;;13.49;55.20;101313.19;4957056;28;45453;-75
2022/05/14 04:39:34;;;;;;;;;9.00;5.00;;;;;13.61;55.50;101318.91;4957626;28;45235;-73
2022/05/14 04:42:06;;;;;;;;;9.00;6.00;;;;;13.65;55.64;101331.94;4957753;28;45964;-74
2022/05/14 04:44:34;;;;;;;;;4.00;4.00;;;;;13.69;55.15;101328.25;4957550;28;45251;-73
2022/05/14 04:47:00;;;;;;;;;6.00;4.00;;;;;13.72;54.80;101322.84;4957940;28;45253;-72
2022/05/14 04:49:27;;;;;;;;;4.75;4.75;;;;;13.78;55.49;101334.94;4940477;28;45261;-73
2022/05/14 04:51:53;;;;;;;;;4.00;4.00;;;;;13.82;55.03;101330.38;4960654;28;45546;-74
2022/05/14 04:54:18;;;;;;;;;4.00;4.00;;;;;13.84;55.02;101334.69;4957491;28;45392;-74
2022/05/14 04:56:44;;;;;;;;;5.25;3.75;;;;;13.86;55.04;101327.56;4957428;28;45415;-73
2022/05/14 04:59:10;;;;;;;;;2.00;2.00;;;;;13.90;54.78;101332.72;4958355;28;45460;-74
2022/05/14 05:01:36;;;;;;;;;5.00;4.00;;;;;13.95;54.86;101339.53;4957899;28;45357;-74
2022/05/14 05:04:02;;;;;;;;;9.00;7.00;;;;;13.99;54.94;101319.09;4956514;28;45366;-75
2022/05/14 05:06:28;;;;;;;;;5.25;4.00;;;;;14.02;54.53;101330.41;4959759;28;45431;-73
2022/05/14 05:08:54;;;;;;;;;4.25;4.25;;;;;14.13;54.53;101332.59;4963410;28;45265;-75
2022/05/14 05:11:20;;;;;;;;;3.75;3.75;;;;;14.26;54.24;101334.72;4962224;28;45941;-74
2022/05/14 05:13:46;;;;;;;;;4.25;3.00;;;;;14.36;53.91;101320.13;4961369;28;45373;-73
2022/05/14 05:16:11;;;;;;;;;8.00;5.00;;;;;14.63;53.68;101329.56;4940628;28;45437;-73
2022/05/14 05:18:37;;;;;;;;;5.25;4.00;;;;;14.79;53.08;101316.50;4956803;28;45607;-73
2022/05/14 05:21:03;;;;;;;;;10.25;10.25;;;;;15.07;52.91;101333.78;4955831;28;46059;-74
2022/05/14 05:23:29;;;;;;;;;7.00;6.00;;;;;15.23;52.62;101333.88;4938306;28;46366;-72
2022/05/14 05:25:58;;;;;;;;;4.75;4.75;;;;;15.42;52.20;101339.19;4940670;28;45283;-75
2022/05/14 05:28:25;;;;;;;;;6.00;5.25;;;;;15.54;51.96;101332.44;4956536;28;45510;-75
2022/05/14 05:30:51;;;;;;;;;5.00;5.00;;;;;15.65;51.42;101345.13;4960277;28;46417;-73
2022/05/14 05:33:20;;;;;;;;;6.00;6.00;;;;;15.74;51.39;101347.34;4962985;28;45339;-74
2022/05/14 05:35:45;;;;;;;;;8.00;7.00;;;;;15.84;51.08;101337.97;4957632;28;45449;-73
2022/05/14 05:38:11;;;;;;;;;8.75;8.75;;;;;15.95;51.05;101339.28;4956246;28;45354;-72
2022/05/14 05:40:37;;;;;;;;;8.75;7.00;;;;;16.00;51.22;101338.09;4956200;28;45582;-74
2022/05/14 05:43:08;;;;;;;;;11.50;7.25;;;;;15.99;50.75;101332.88;4956015;28;45324;-73
2022/05/14 05:45:34;;;;;;;;;5.50;5.50;;;;;16.00;50.63;101335.44;4956557;28;45429;-74
2022/05/14 05:47:59;;;;;;;;;6.00;6.00;;;;;15.98;50.49;101339.97;4955226;28;45430;-75
2022/05/14 05:50:25;;;;;;;;;11.25;10.25;;;;;15.92;50.57;101334.97;4954255;28;47441;-73
2022/05/14 05:52:52;;;;;;;;;11.75;8.50;;;;;15.89;50.50;101328.03;4956536;28;45375;-73
2022/05/14 05:58:03;;;;;;;;;7.50;7.50;;;;;15.92;50.50;101348.25;4957121;28;45236;-73
2022/05/14 06:00:28;;;;;;;;;6.00;6.00;;;;;15.82;50.21;101341.66;4955955;28;45363;-76
2022/05/14 06:02:55;;;;;;;;;7.50;4.50;;;;;15.76;50.50;101346.34;4955903;28;45236;-75
2022/05/14 06:05:21;;;;;;;;;4.00;4.00;;;;;15.72;50.38;101350.06;4956381;28;45216;-75
2022/05/14 06:07:47;;;;;;;;;13.50;10.25;;;;;15.63;50.54;101354.03;4956166;28;45319;-74
2022/05/14 06:10:15;;;;;;;;;6.50;5.00;;;;;15.62;50.60;101354.13;4956253;28;45413;-74
2022/05/14 06:12:41;;;;;;;;;6.50;4.00;;;;;15.58;50.81;101364.00;4956772;28;45433;-76
2022/05/14 06:15:13;;;;;;;;;6.50;5.00;;;;;15.53;50.61;101360.72;4957753;28;45493;-74
2022/05/14 06:17:39;;;;;;;;;6.00;6.00;;;;;15.46;50.73;101364.59;4956164;28;45499;-74
2022/05/14 06:20:06;;;;;;;;;8.00;6.00;;;;;15.39;50.96;101355.22;4956238;28;45914;-73
2022/05/14 06:22:31;;;;;;;;;6.00;4.25;;;;;15.41;51.04;101363.97;4955850;28;45208;-75
2022/05/14 06:24:56;;;;;;;;;5.00;5.00;;;;;15.40;51.11;101372.84;4956732;28;45870;-76
2022/05/14 06:27:22;;;;;;;;;7.00;5.25;;;;;15.32;51.22;101346.69;4958264;28;45816;-75
2022/05/14 06:29:47;;;;;;;;;4.25;4.25;;;;;15.38;51.14;101364.13;4958925;28;45566;-73
2022/05/14 06:32:13;;;;;;;;;8.75;7.00;;;;;15.39;51.48;101369.38;4939952;28;45365;-74
2022/05/14 06:34:38;;;;;;;;;8.25;6.75;;;;;15.42;51.13;101376.28;4957239;28;45340;-73
2022/05/14 06:37:04;;;;;;;;;7.00;4.00;;;;;15.45;51.38;101377.03;4957857;28;45272;-73
2022/05/14 06:39:29;;;;;;;;;7.25;6.00;;;;;15.51;51.19;101378.50;4956393;28;46161;-75
2022/05/14 06:41:56;;;;;;;;;5.50;5.00;;;;;15.52;51.10;101374.06;4956563;28;45320;-74
2022/05/14 06:44:22;;;;;;;;;5.00;5.00;;;;;15.63;50.81;101377.06;4956311;28;45503;-73
2022/05/14 06:46:47;;;;;;;;;6.00;6.00;;;;;15.64;50.76;101370.81;4956232;28;45353;-74
2022/05/14 06:49:13;;;;;;;;;6.75;5.00;;;;;15.77;50.77;101382.53;4939022;28;47801;-74
2022/05/14 06:51:40;;;;;;;;;6.00;4.50;;;;;15.85;50.64;101376.00;4957370;28;45258;-75
2022/05/14 06:54:08;;;;;;;;;6.00;5.25;;;;;15.88;50.55;101368.75;4956302;28;45296;-73
2022/05/14 06:56:37;;;;;;;;;5.00;5.00;;;;;16.05;50.34;101372.38;4939190;28;45600;-73
2022/05/14 06:59:03;;;;;;;;;4.50;4.50;;;;;15.99;50.46;101360.28;4959839;28;45361;-75
2022/05/14 07:01:29;;;;;;;;;5.00;5.00;;;;;16.14;50.01;101373.69;4961793;28;45326;-74
2022/05/14 07:06:42;;;;;;;;;4.75;4.75;;;;;16.32;49.49;101369.25;4962479;28;45249;-74
2022/05/14 07:09:18;;;;;;;;;6.00;6.00;;;;;16.31;49.58;101363.06;4959624;28;46261;-74
2022/05/14 07:11:46;;;;;;;;;7.00;5.25;;;;;16.44;49.46;101381.88;4958984;28;45317;-75
2022/05/14 07:14:14;;;;;;;;;6.00;6.00;;;;;16.40;49.41;101379.44;4942390;28;45343;-74
2022/05/14 07:16:40;;;;;;;;;4.00;4.00;;;;;16.35;49.35;101377.88;4960756;28;45454;-74
2022/05/14 07:19:06;;;;;;;;;4.50;4.00;;;;;16.43;49.21;101361.56;4961046;28;46604;-74
2022/05/14 07:21:34;;;;;;;;;7.50;7.50;;;;;16.57;48.97;101373.25;4959459;28;45322;-75
2022/05/14 07:24:03;;;;;;;;;5.75;5.00;;;;;16.64;48.66;101370.22;4962523;28;45785;-76
2022/05/14 07:26:28;;;;;;;;;8.50;6.25;;;;;16.71;48.63;101367.22;4961723;28;45508;-75
2022/05/14 07:28:54;;;;;;;;;6.50;3.00;;;;;16.80;47.93;101367.56;4960970;28;45443;-76
2022/05/14 07:31:19;;;;;;;;;5.25;5.25;;;;;16.83;48.01;101360.38;4959264;28;45413;-73
2022/05/14 07:33:45;;;;;;;;;6.75;4.25;;;;;16.96;47.79;101371.22;4958410;28;45494;-75
2022/05/14 07:36:16;;;;;;;;;7.50;7.50;;;;;17.03;47.73;101362.88;4959101;28;45270;-74
2022/05/14 07:38:42;;;;;;;;;4.75;4.75;;;;;17.13;47.42;101367.66;4958630;28;46198;-74
2022/05/14 07:41:08;;;;;;;;;6.50;6.50;;;;;16.90;47.43;101314.81;4959661;28;45444;-74
2022/05/14 07:43:37;;;;;;;;;7.50;5.50;;;;;17.27;47.11;101364.22;4960024;28;45426;-75
2022/05/14 07:46:10;;;;;;;;;5.50;5.50;;;;;17.31;47.10;101358.66;4959955;28;45318;-75
2022/05/14 07:48:38;;;;;;;;;4.00;4.00;;;;;17.45;46.67;101359.69;4958821;28;45402;-74
2022/05/14 07:51:06;;;;;;;;;8.00;5.00;;;;;17.54;46.74;101360.97;4958183;28;45430;-74
2022/05/14 07:53:32;;;;;;;;;6.75;5.25;;;;;17.66;46.52;101368.25;4958457;28;45305;-75
2022/05/14 07:56:02;;;;;;;;;4.50;3.00;;;;;17.82;46.07;101360.22;4958258;28;45346;-74
2022/05/14 07:58:28;;;;;;;;;14.50;11.75;;;;;17.93;45.85;101362.25;4958731;28;46500;-74
2022/05/14 08:00:55;;;;;;;;;6.75;5.00;;;;;18.03;45.78;101358.13;4960221;28;45485;-74
2022/05/14 08:03:24;;;;;;;;;5.75;5.75;;;;;17.99;45.44;101329.06;4959991;28;45432;-76
2022/05/14 08:05:50;;;;;;;;;4.50;4.50;;;;;18.22;45.19;101351.69;4960025;28;45378;-73
2022/05/14 08:08:16;;;;;;;;;4.00;4.00;;;;;18.26;45.07;101350.56;4958484;28;46544;-76
2022/05/14 08:10:43;;;;;;;;;4.00;4.00;;;;;18.28;44.87;101356.66;4958010;28;45432;-74
2022/05/14 08:13:14;;;;;;;;;3.50;3.50;;;;;18.30;44.92;101345.91;4959377;28;45259;-76
2022/05/14 08:15:40;;;;;;;;;6.50;5.00;;;;;18.44;45.00;101351.25;4959343;28;45286;-74
2022/05/14 08:18:06;;;;;;;;;6.00;4.25;;;;;18.46;44.55;101346.69;4959621;28;45355;-75
2022/05/14 08:20:31;;;;;;;;;3.25;3.25;;;;;18.51;44.82;101347.25;4958048;28;45848;-76
2022/05/14 08:25:40;;;;;;;;;4.50;4.50;;;;;18.71;44.56;101347.81;4960631;28;45371;-74
2022/05/14 08:28:06;;;;;;;;;3.75;3.75;;;;;18.76;44.05;101348.41;4960239;28;45389;-75
2022/05/14 08:30:33;;;;;;;;;3.75;3.75;;;;;18.79;44.13;101348.19;4959987;28;45372;-76
2022/05/14 08:32:59;;;;;;;;;6.00;4.50;;;;;18.83;44.24;101351.53;4959465;28;45305;-75
2022/05/14 08:35:26;;;;;;;;;8.25;4.00;;;;;18.95;43.92;101345.44;4960268;28;45532;-73
2022/05/14 08:37:53;;;;;;;;;5.00;5.00;;;;;19.00;43.61;101331.00;4958929;28;46204;-75
2022/05/14 08:40:31;;;;;;;;;4.50;4.00;;;;;19.27;42.97;101342.53;4958365;28;45449;-75
2022/05/14 08:43:01;;;;;;;;;0.75;0.75;;;;;19.30;42.82;101344.16;4959852;28;45255;-75
2022/05/14 08:45:29;;;;;;;;;4.50;3.00;;;;;19.36;42.94;101345.56;4959429;28;45507;-77
2022/05/14 08:47:57;;;;;;;;;3.75;3.25;;;;;19.51;43.01;101349.03;4959053;28;46277;-76
2022/05/14 08:50:48;;;;;;;;;6.75;5.50;;;;;19.59;42.40;101344.06;4958330;28;45294;-77
2022/05/14 08:53:14;;;;;;;;;3.00;3.00;;;;;19.59;42.88;101333.38;4959679;28;45801;-75
2022/05/14 08:55:46;;;;;;;;;4.50;4.50;;;;;19.61;42.63;101336.78;4959601;28;45386;-75
2022/05/14 08:58:44;;;;;;;;;5.25;4.25;;;;;19.69;42.08;101336.31;4959406;28;46254;-75
2022/05/14 09:01:16;;;;;;;;;4.75;2.00;;;;;19.81;41.88;101338.13;4956239;28;45317;-75
2022/05/14 09:03:45;;;;;;;;;2.00;2.00;;;;;19.90;41.61;101338.50;4942729;28;45345;-75
2022/05/14 09:06:10;;;;;;;;;3.00;3.00;;;;;19.93;41.84;101328.47;4959825;28;45352;-74
2022/05/14 09:08:36;;;;;;;;;2.50;2.50;;;;;19.91;41.34;101330.38;4959761;28;45514;-75
2022/05/14 09:11:06;;;;;;;;;5.25;3.50;;;;;20.05;41.69;101339.25;4959791;28;45249;-77
2022/05/14 09:13:43;;;;;;;;;5.75;5.50;;;;;20.18;41.55;101340.16;4941157;28;45473;-76
2022/05/14 09:16:24;;;;;;;;;4.50;4.00;;;;;20.34;40.42;101339.94;4959219;28;45342;-75
2022/05/14 09:18:50;;;;;;;;;5.00;5.00;;;;;20.37;40.68;101334.38;4958876;28;45355;-75
2022/05/14 09:21:23;;;;;;;;;9.25;6.00;;;;;20.53;40.69;101334.16;4958655;28;45287;-76
2022/05/14 09:24:15;;;;;;;;;5.00;5.00;;;;;20.67;40.17;101343.84;4960503;28;45294;-75
2022/05/14 09:26:42;;;;;;;;;2.75;2.50;;;;;20.75;39.80;101343.31;4952703;28;45837;-76
2022/05/14 09:29:18;;;;;;;;;4.25;4.25;;;;;20.73;40.17;101326.53;4959292;28;45363;-76
2022/05/14 09:31:55;;;;;;;;;5.00;3.75;;;;;20.78;39.44;101335.13;4941819;28;46159;-75
2022/05/14 09:34:21;;;;;;;;;4.50;3.00;;;;;20.85;39.93;101320.34;4942376;28;45452;-75
2022/05/14 09:36:49;;;;;;;;;6.50;5.00;;;;;20.95;39.48;101331.22;4959634;28;45374;-76
2022/05/14 09:39:21;;;;;;;;;6.25;6.25;;;;;21.01;39.29;101321.91;4959257;28;46431;-76
2022/05/14 09:41:49;;;;;;;;;15.25;12.75;;;;;21.08;39.31;101316.97;4959393;28;45341;-76
2022/05/14 09:44:46;;;;;;;;;7.75;7.00;;;;;21.22;39.35;101321.31;4956313;28;45414;-79
2022/05/14 09:47:15;;;;;;;;;4.75;4.00;;;;;21.32;38.88;101314.31;4939859;28;45641;-75
2022/05/14 09:49:52;;;;;;;;;5.00;3.50;;;;;21.37;38.90;101296.09;4956798;28;46337;-76
2022/05/14 09:52:24;;;;;;;;;5.00;4.00;;;;;21.67;38.43;101307.28;4958210;28;45433;-75
2022/05/14 09:54:51;;;;;;;;;4.75;4.75;;;;;21.79;38.53;101306.38;4939759;28;45273;-77
2022/05/14 09:57:55;;;;;;;;;3.25;2.50;;;;;21.95;38.07;101307.88;4956674;28;45365;-74
2022/05/14 10:00:57;;;;;;;;;6.00;3.00;;;;;22.00;37.92;101295.81;4957500;28;46133;-75
2022/05/14 10:03:32;;;;;;;;;4.00;4.00;;;;;22.04;37.67;101299.13;4939802;28;45269;-75
2022/05/14 10:06:46;;;;;;;;;5.50;4.25;;;;;22.17;37.73;101290.97;4956809;28;45374;-75
2022/05/14 10:09:28;;;;;;;;;12.25;9.50;;;;;22.37;37.43;101275.16;4863870;28;45293;-75
2022/05/14 10:12:23;;;;;;;;;8.75;7.00;;;;;22.48;37.51;101285.91;4959304;28;46228;-75
2022/05/14 10:15:15;;;;;;;;;7.00;5.75;;;;;22.61;37.09;101289.31;4928954;28;45463;-75
2022/05/14 10:18:30;;;;;;;;;4.50;4.00;;;;;22.73;37.03;101278.56;4957885;28;45184;-75
2022/05/14 10:21:29;;;;;;;;;5.25;4.50;;;;;22.81;36.64;101284.16;4953254;28;45514;-75
2022/05/14 10:27:19;;;;;;;;;12.50;10.00;;;;;22.89;36.53;101281.72;4957613;28;45415;-75
2022/05/14 10:30:21;;;;;;;;;6.25;5.50;;;;;22.95;36.16;101284.88;4955967;28;45299;-75
2022/05/14 10:33:07;;;;;;;;;4.75;4.75;;;;;23.00;36.59;101280.84;4958301;28;45368;-75
2022/05/14 10:35:46;;;;;;;;;8.25;5.25;;;;;23.07;35.93;101281.16;4959509;28;45470;-75
2022/05/14 10:38:16;;;;;;;;;6.25;4.00;;;;;23.11;36.08;101282.63;4943376;28;45356;-75
2022/05/14 10:40:56;;;;;;;;;6.00;4.25;;;;;23.14;35.95;101278.84;4960796;28;45521;-76
2022/05/14 10:43:50;;;;;;;;;7.00;5.00;;;;;23.13;35.78;101274.47;4959930;28;45612;-76
2022/05/14 10:46:23;;;;;;;;;6.00;5.00;;;;;23.19;35.62;101274.78;4959625;28;46220;-78
2022/05/14 10:49:05;;;;;;;;;5.00;2.00;;;;;23.26;35.54;101268.94;4942703;28;45793;-76
2022/05/14 10:51:36;;;;;;;;;6.00;6.00;;;;;23.39;36.01;101268.78;4960590;28;45255;-78
2022/05/14 10:54:03;;;;;;;;;6.00;5.00;;;;;23.52;35.04;101263.22;4958959;28;45477;-77
2022/05/14 10:56:33;;;;;;;;;5.00;4.50;;;;;23.55;35.40;101262.97;4958572;28;47850;-75
2022/05/14 10:59:08;;;;;;;;;5.00;5.00;;;;;23.55;35.17;101263.81;4960771;28;45521;-75
2022/05/14 11:01:41;;;;;;;;;6.50;6.25;;;;;23.61;35.10;101265.97;4959776;28;45424;-73
2022/05/14 11:04:18;;;;;;;;;7.25;5.75;;;;;23.72;34.71;101270.44;4960848;28;45490;-75
2022/05/14 11:07:06;;;;;;;;;8.00;7.00;;;;;23.74;34.60;101260.41;4958788;28;46026;-77
2022/05/14 11:09:34;;;;;;;;;4.00;4.00;;;;;23.79;34.70;101260.00;4940634;28;45248;-75
2022/05/14 11:12:18;;;;;;;;;5.75;5.00;;;;;23.76;34.78;101261.13;4958794;28;45385;-77
2022/05/14 11:14:48;;;;;;;;;3.50;3.25;;;;;23.74;34.12;101254.19;4941380;28;45236;-74
2022/05/14 11:17:30;;;;;;;;;11.00;10.75;;;;;23.63;34.51;101247.88;4958465;28;45495;-74
2022/05/14 11:20:04;;;;;;;;;7.00;6.25;;;;;23.77;34.52;101257.47;4958577;28;45237;-76
2022/05/14 11:22:36;;;;;;;;;8.25;7.50;;;;;23.76;34.07;101252.22;4957077;28;45661;-75
2022/05/14 11:25:24;;;;;;;;;10.50;8.25;;;;;23.82;34.12;101240.09;4958814;28;45518;-75
2022/05/14 11:28:09;;;;;;;;;22.00;19.75;;;;;23.86;34.74;101226.28;4958763;28;46187;-76
2022/05/14 11:30:43;;;;;;;;;5.25;5.25;;;;;23.96;34.36;101233.53;4958678;28;45418;-75
2022/05/14 11:33:31;;;;;;;;;5.75;5.75;;;;;24.02;34.43;101241.09;4956767;28;45255;-76
2022/05/14 11:35:59;;;;;;;;;4.50;4.50;;;;;24.12;33.79;101233.06;4958867;28;45440;-74
2022/05/14 11:38:28;;;;;;;;;3.50;3.50;;;;;24.20;33.82;101231.41;4959954;28;45514;-78
2022/05/14 11:41:28;;;;;;;;;6.75;5.25;;;;;24.27;34.26;101229.03;4957780;28;45287;-74
2022/05/14 11:43:54;;;;;;;;;4.75;4.75;;;;;24.42;33.58;101225.97;4936392;28;45471;-73
2022/05/14 11:46:28;;;;;;;;;8.00;6.00;;;;;24.49;33.85;101229.81;4958578;28;45409;-75
2022/05/14 11:49:18;;;;;;;;;7.25;6.25;;;;;24.54;33.44;101226.72;4958185;28;46441;-74
2022/05/14 11:52:37;;;;;;;;;6.00;5.00;;;;;24.58;33.60;101223.63;4954302;28;45363;-74
2022/05/14 11:55:10;;;;;;;;;11.00;9.75;;;;;24.65;33.57;101224.75;4915077;28;45521;-76